sensor_id;sensor_type;location;lat;lon;timestamp;P1;durP1;ratioP1;P2;durP2;ratioP2
77948;SDS011;67146;51.236;-0.336;2023-09-12T00:02:05;7.43;;;2.57;;
77948;SDS011;67146;51.236;-0.336;2023-09-12T00:04:30;8.90;;;3.13;;
77948;SDS011;67146;51.236;-0.336;2023-09-12T00:06:56;7.70;;;2.97;;
77948;SDS011;67146;51.236;-0.336;2023-09-12T00:09:21;11.33;;;3.60;;
77948;SDS011;67146;51.236;-0.336;2023-09-12T00:11:47;7.95;;;2.72;;
77948;SDS011;67146;51.236;-0.336;2023-09-12T00:14:15;7.97;;;2.77;;
77948;SDS011;67146;51.236;-0.336;2023-09-12T00:16:42;6.68;;;2.83;;
77948;SDS011;67146;51.236;-0.336;2023-09-12T00:19:07;7.68;;;3.00;;
77948;SDS011;67146;51.236;-0.336;2023-09-12T00:21:33;7.50;;;2.53;;
77948;SDS011;67146;51.236;-0.336;2023-09-12T00:23:58;8.90;;;2.85;;
77948;SDS011;67146;51.236;-0.336;2023-09-12T00:26:24;6.45;;;2.42;;
77948;SDS011;67146;51.236;-0.336;2023-09-12T00:28:50;7.53;;;2.80;;
77948;SDS011;67146;51.236;-0.336;2023-09-12T00:31:15;7.10;;;2.93;;
77948;SDS011;67146;51.236;-0.336;2023-09-12T00:33:41;7.63;;;2.95;;
77948;SDS011;67146;51.236;-0.336;2023-09-12T00:36:06;7.23;;;2.90;;
77948;SDS011;67146;51.236;-0.336;2023-09-12T00:38:31;7.50;;;3.10;;
77948;SDS011;67146;51.236;-0.336;2023-09-12T00:40:57;7.90;;;3.30;;
77948;SDS011;67146;51.236;-0.336;2023-09-12T00:43:23;8.27;;;3.03;;
77948;SDS011;67146;51.236;-0.336;2023-09-12T00:45:49;9.80;;;3.08;;
77948;SDS011;67146;51.236;-0.336;2023-09-12T00:48:14;10.07;;;3.47;;
77948;SDS011;67146;51.236;-0.336;2023-09-12T00:50:42;7.47;;;2.80;;
77948;SDS011;67146;51.236;-0.336;2023-09-12T00:53:08;8.23;;;3.10;;
77948;SDS011;67146;51.236;-0.336;2023-09-12T00:55:34;7.90;;;3.05;;
77948;SDS011;67146;51.236;-0.336;2023-09-12T00:58:03;9.65;;;3.15;;
77948;SDS011;67146;51.236;-0.336;2023-09-12T01:00:28;8.27;;;2.65;;
77948;SDS011;67146;51.236;-0.336;2023-09-12T01:02:55;9.88;;;3.45;;
77948;SDS011;67146;51.236;-0.336;2023-09-12T01:05:23;6.68;;;2.65;;
77948;SDS011;67146;51.236;-0.336;2023-09-12T01:07:49;8.02;;;3.00;;
77948;SDS011;67146;51.236;-0.336;2023-09-12T01:10:15;7.85;;;2.97;;
77948;SDS011;67146;51.236;-0.336;2023-09-12T01:12:40;10.10;;;3.47;;
77948;SDS011;67146;51.236;-0.336;2023-09-12T01:15:06;8.83;;;2.67;;
77948;SDS011;67146;51.236;-0.336;2023-09-12T01:17:38;6.93;;;2.88;;
77948;SDS011;67146;51.236;-0.336;2023-09-12T01:20:03;6.90;;;2.85;;
77948;SDS011;67146;51.236;-0.336;2023-09-12T01:27:53;6.65;;;2.40;;
77948;SDS011;67146;51.236;-0.336;2023-09-12T01:30:20;8.05;;;2.55;;
77948;SDS011;67146;51.236;-0.336;2023-09-12T01:32:46;8.05;;;3.47;;
77948;SDS011;67146;51.236;-0.336;2023-09-12T01:35:12;8.48;;;2.90;;
77948;SDS011;67146;51.236;-0.336;2023-09-12T01:37:38;7.82;;;2.83;;
77948;SDS011;67146;51.236;-0.336;2023-09-12T01:40:03;7.35;;;2.63;;
77948;SDS011;67146;51.236;-0.336;2023-09-12T01:42:35;8.02;;;2.80;;
77948;SDS011;67146;51.236;-0.336;2023-09-12T01:45:03;7.30;;;2.80;;
77948;SDS011;67146;51.236;-0.336;2023-09-12T01:47:29;8.73;;;2.67;;
77948;SDS011;67146;51.236;-0.336;2023-09-12T01:49:56;8.27;;;2.67;;
77948;SDS011;67146;51.236;-0.336;2023-09-12T01:52:22;6.90;;;2.95;;
77948;SDS011;67146;51.236;-0.336;2023-09-12T01:54:49;7.75;;;3.00;;
77948;SDS011;67146;51.236;-0.336;2023-09-12T01:57:15;7.10;;;2.83;;
77948;SDS011;67146;51.236;-0.336;2023-09-12T01:59:41;9.18;;;3.55;;
77948;SDS011;67146;51.236;-0.336;2023-09-12T02:02:07;8.13;;;3.40;;
77948;SDS011;67146;51.236;-0.336;2023-09-12T02:04:35;9.15;;;3.05;;
77948;SDS011;67146;51.236;-0.336;2023-09-12T02:07:01;11.95;;;3.70;;
77948;SDS011;67146;51.236;-0.336;2023-09-12T02:09:26;10.80;;;3.53;;
77948;SDS011;67146;51.236;-0.336;2023-09-12T02:11:51;9.00;;;3.27;;
77948;SDS011;67146;51.236;-0.336;2023-09-12T02:14:22;7.88;;;3.40;;
77948;SDS011;67146;51.236;-0.336;2023-09-12T02:16:47;9.95;;;3.13;;
77948;SDS011;67146;51.236;-0.336;2023-09-12T02:19:13;7.45;;;3.25;;
77948;SDS011;67146;51.236;-0.336;2023-09-12T02:21:38;9.13;;;3.25;;
77948;SDS011;67146;51.236;-0.336;2023-09-12T02:24:05;8.13;;;3.03;;
77948;SDS011;67146;51.236;-0.336;2023-09-12T02:26:30;8.43;;;3.63;;
77948;SDS011;67146;51.236;-0.336;2023-09-12T02:29:01;11.23;;;3.17;;
77948;SDS011;67146;51.236;-0.336;2023-09-12T02:31:29;11.55;;;4.53;;
77948;SDS011;67146;51.236;-0.336;2023-09-12T02:33:57;7.80;;;3.33;;
77948;SDS011;67146;51.236;-0.336;2023-09-12T02:36:22;10.70;;;4.72;;
77948;SDS011;67146;51.236;-0.336;2023-09-12T02:38:49;11.50;;;3.67;;
77948;SDS011;67146;51.236;-0.336;2023-09-12T02:41:15;8.98;;;3.75;;
77948;SDS011;67146;51.236;-0.336;2023-09-12T02:43:40;9.95;;;3.55;;
77948;SDS011;67146;51.236;-0.336;2023-09-12T02:46:05;10.17;;;3.77;;
77948;SDS011;67146;51.236;-0.336;2023-09-12T02:48:31;10.98;;;4.13;;
77948;SDS011;67146;51.236;-0.336;2023-09-12T02:50:58;8.13;;;3.97;;
77948;SDS011;67146;51.236;-0.336;2023-09-12T02:53:23;10.32;;;3.85;;
77948;SDS011;67146;51.236;-0.336;2023-09-12T02:55:51;11.30;;;4.57;;
77948;SDS011;67146;51.236;-0.336;2023-09-12T02:58:16;10.60;;;4.53;;
77948;SDS011;67146;51.236;-0.336;2023-09-12T03:00:41;11.27;;;4.63;;
77948;SDS011;67146;51.236;-0.336;2023-09-12T03:03:07;11.37;;;4.07;;
77948;SDS011;67146;51.236;-0.336;2023-09-12T03:05:34;11.57;;;4.22;;
77948;SDS011;67146;51.236;-0.336;2023-09-12T03:07:59;9.50;;;4.32;;
77948;SDS011;67146;51.236;-0.336;2023-09-12T03:10:26;10.30;;;4.35;;
77948;SDS011;67146;51.236;-0.336;2023-09-12T03:12:51;11.02;;;4.47;;
77948;SDS011;67146;51.236;-0.336;2023-09-12T03:15:16;10.30;;;4.43;;
77948;SDS011;67146;51.236;-0.336;2023-09-12T03:17:42;12.95;;;5.47;;
77948;SDS011;67146;51.236;-0.336;2023-09-12T03:20:08;11.43;;;5.17;;
77948;SDS011;67146;51.236;-0.336;2023-09-12T03:22:35;12.45;;;4.75;;
77948;SDS011;67146;51.236;-0.336;2023-09-12T03:25:04;12.13;;;5.38;;
77948;SDS011;67146;51.236;-0.336;2023-09-12T03:27:31;11.98;;;4.93;;
77948;SDS011;67146;51.236;-0.336;2023-09-12T03:29:57;11.55;;;4.93;;
77948;SDS011;67146;51.236;-0.336;2023-09-12T03:32:22;11.57;;;5.00;;
77948;SDS011;67146;51.236;-0.336;2023-09-12T03:34:48;13.90;;;5.90;;
77948;SDS011;67146;51.236;-0.336;2023-09-12T03:37:13;14.48;;;6.10;;
77948;SDS011;67146;51.236;-0.336;2023-09-12T03:39:38;11.90;;;5.35;;
77948;SDS011;67146;51.236;-0.336;2023-09-12T03:42:04;12.18;;;5.10;;
77948;SDS011;67146;51.236;-0.336;2023-09-12T03:44:29;11.40;;;5.38;;
77948;SDS011;67146;51.236;-0.336;2023-09-12T03:46:55;14.57;;;5.73;;
77948;SDS011;67146;51.236;-0.336;2023-09-12T03:49:22;10.93;;;4.83;;
77948;SDS011;67146;51.236;-0.336;2023-09-12T03:51:47;10.80;;;4.95;;
77948;SDS011;67146;51.236;-0.336;2023-09-12T03:54:13;12.68;;;5.18;;
77948;SDS011;67146;51.236;-0.336;2023-09-12T03:56:38;13.82;;;5.50;;
77948;SDS011;67146;51.236;-0.336;2023-09-12T03:59:04;13.43;;;5.38;;
77948;SDS011;67146;51.236;-0.336;2023-09-12T04:01:30;12.55;;;5.53;;
77948;SDS011;67146;51.236;-0.336;2023-09-12T04:03:55;10.35;;;4.75;;
77948;SDS011;67146;51.236;-0.336;2023-09-12T04:06:21;12.63;;;4.93;;
77948;SDS011;67146;51.236;-0.336;2023-09-12T04:08:47;11.75;;;4.93;;
77948;SDS011;67146;51.236;-0.336;2023-09-12T04:11:12;10.30;;;4.37;;
77948;SDS011;67146;51.236;-0.336;2023-09-12T04:13:37;12.63;;;4.63;;
77948;SDS011;67146;51.236;-0.336;2023-09-12T04:16:03;12.70;;;5.05;;
77948;SDS011;67146;51.236;-0.336;2023-09-12T04:18:28;16.17;;;5.22;;
77948;SDS011;67146;51.236;-0.336;2023-09-12T04:20:54;12.75;;;5.30;;
77948;SDS011;67146;51.236;-0.336;2023-09-12T04:23:24;12.30;;;5.22;;
77948;SDS011;67146;51.236;-0.336;2023-09-12T04:25:49;14.70;;;5.47;;
77948;SDS011;67146;51.236;-0.336;2023-09-12T04:28:15;13.45;;;5.07;;
77948;SDS011;67146;51.236;-0.336;2023-09-12T04:30:41;12.45;;;5.43;;
77948;SDS011;67146;51.236;-0.336;2023-09-12T04:33:07;13.05;;;5.68;;
77948;SDS011;67146;51.236;-0.336;2023-09-12T04:35:35;11.53;;;5.13;;
77948;SDS011;67146;51.236;-0.336;2023-09-12T04:40:28;11.50;;;5.13;;
77948;SDS011;67146;51.236;-0.336;2023-09-12T04:42:54;13.13;;;5.13;;
77948;SDS011;67146;51.236;-0.336;2023-09-12T04:45:20;14.20;;;5.43;;
77948;SDS011;67146;51.236;-0.336;2023-09-12T04:47:45;13.48;;;5.35;;
77948;SDS011;67146;51.236;-0.336;2023-09-12T04:50:11;11.82;;;4.80;;
77948;SDS011;67146;51.236;-0.336;2023-09-12T04:52:37;13.60;;;5.35;;
77948;SDS011;67146;51.236;-0.336;2023-09-12T04:55:07;18.20;;;6.00;;
77948;SDS011;67146;51.236;-0.336;2023-09-12T04:57:35;17.25;;;5.63;;
77948;SDS011;67146;51.236;-0.336;2023-09-12T05:00:03;12.70;;;5.65;;
77948;SDS011;67146;51.236;-0.336;2023-09-12T05:02:31;13.85;;;5.63;;
77948;SDS011;67146;51.236;-0.336;2023-09-12T05:04:57;12.63;;;5.38;;
77948;SDS011;67146;51.236;-0.336;2023-09-12T05:07:25;14.68;;;5.10;;
77948;SDS011;67146;51.236;-0.336;2023-09-12T05:09:58;14.85;;;5.95;;
77948;SDS011;67146;51.236;-0.336;2023-09-12T05:12:23;12.60;;;5.65;;
77948;SDS011;67146;51.236;-0.336;2023-09-12T05:14:49;12.52;;;5.53;;
77948;SDS011;67146;51.236;-0.336;2023-09-12T05:17:22;15.38;;;5.20;;
77948;SDS011;67146;51.236;-0.336;2023-09-12T05:19:47;13.60;;;5.50;;
77948;SDS011;67146;51.236;-0.336;2023-09-12T05:22:13;13.88;;;6.07;;
77948;SDS011;67146;51.236;-0.336;2023-09-12T05:24:40;12.80;;;5.60;;
77948;SDS011;67146;51.236;-0.336;2023-09-12T05:27:11;16.38;;;5.53;;
77948;SDS011;67146;51.236;-0.336;2023-09-12T05:29:37;13.48;;;5.95;;
77948;SDS011;67146;51.236;-0.336;2023-09-12T05:32:03;13.52;;;5.72;;
77948;SDS011;67146;51.236;-0.336;2023-09-12T05:34:34;15.75;;;5.43;;
77948;SDS011;67146;51.236;-0.336;2023-09-12T05:36:59;14.13;;;5.30;;
77948;SDS011;67146;51.236;-0.336;2023-09-12T05:39:24;13.95;;;5.05;;
77948;SDS011;67146;51.236;-0.336;2023-09-12T05:46:45;14.35;;;5.53;;
77948;SDS011;67146;51.236;-0.336;2023-09-12T05:49:12;12.73;;;5.10;;
77948;SDS011;67146;51.236;-0.336;2023-09-12T05:51:38;14.40;;;5.60;;
77948;SDS011;67146;51.236;-0.336;2023-09-12T05:54:04;11.70;;;4.93;;
77948;SDS011;67146;51.236;-0.336;2023-09-12T05:56:30;13.05;;;5.45;;
77948;SDS011;67146;51.236;-0.336;2023-09-12T05:58:55;13.30;;;5.25;;
77948;SDS011;67146;51.236;-0.336;2023-09-12T06:01:21;11.30;;;5.03;;
77948;SDS011;67146;51.236;-0.336;2023-09-12T06:03:47;12.07;;;5.75;;
77948;SDS011;67146;51.236;-0.336;2023-09-12T06:06:14;12.45;;;5.75;;
77948;SDS011;67146;51.236;-0.336;2023-09-12T06:08:40;14.88;;;6.40;;
77948;SDS011;67146;51.236;-0.336;2023-09-12T06:11:06;12.40;;;5.82;;
77948;SDS011;67146;51.236;-0.336;2023-09-12T06:13:32;14.40;;;5.72;;
77948;SDS011;67146;51.236;-0.336;2023-09-12T06:15:57;9.90;;;4.25;;
77948;SDS011;67146;51.236;-0.336;2023-09-12T06:18:23;14.75;;;5.35;;
77948;SDS011;67146;51.236;-0.336;2023-09-12T06:20:49;10.68;;;4.28;;
77948;SDS011;67146;51.236;-0.336;2023-09-12T06:23:15;12.30;;;5.30;;
77948;SDS011;67146;51.236;-0.336;2023-09-12T06:25:40;16.50;;;5.95;;
77948;SDS011;67146;51.236;-0.336;2023-09-12T06:28:09;11.85;;;5.20;;
77948;SDS011;67146;51.236;-0.336;2023-09-12T06:30:36;12.48;;;4.97;;
77948;SDS011;67146;51.236;-0.336;2023-09-12T06:33:04;11.85;;;5.43;;
77948;SDS011;67146;51.236;-0.336;2023-09-12T06:35:31;10.98;;;4.72;;
77948;SDS011;67146;51.236;-0.336;2023-09-12T06:38:00;12.32;;;5.03;;
77948;SDS011;67146;51.236;-0.336;2023-09-12T06:40:51;9.82;;;4.93;;
77948;SDS011;67146;51.236;-0.336;2023-09-12T06:43:28;11.38;;;4.72;;
77948;SDS011;67146;51.236;-0.336;2023-09-12T06:49:44;10.90;;;4.32;;
77948;SDS011;67146;51.236;-0.336;2023-09-12T06:52:18;10.65;;;4.53;;
77948;SDS011;67146;51.236;-0.336;2023-09-12T06:54:48;9.57;;;3.85;;
77948;SDS011;67146;51.236;-0.336;2023-09-12T06:57:25;11.20;;;4.47;;
77948;SDS011;67146;51.236;-0.336;2023-09-12T06:59:55;9.85;;;4.60;;
77948;SDS011;67146;51.236;-0.336;2023-09-12T07:02:53;11.85;;;3.85;;
77948;SDS011;67146;51.236;-0.336;2023-09-12T07:05:44;10.50;;;4.63;;
77948;SDS011;67146;51.236;-0.336;2023-09-12T07:08:19;10.40;;;4.55;;
77948;SDS011;67146;51.236;-0.336;2023-09-12T07:10:50;11.23;;;4.32;;
77948;SDS011;67146;51.236;-0.336;2023-09-12T07:13:20;12.05;;;4.78;;
77948;SDS011;67146;51.236;-0.336;2023-09-12T07:15:47;11.38;;;4.10;;
77948;SDS011;67146;51.236;-0.336;2023-09-12T07:18:17;10.32;;;4.38;;
77948;SDS011;67146;51.236;-0.336;2023-09-12T07:21:02;12.60;;;4.70;;
77948;SDS011;67146;51.236;-0.336;2023-09-12T07:23:31;13.27;;;5.05;;
77948;SDS011;67146;51.236;-0.336;2023-09-12T07:26:00;14.45;;;4.95;;
77948;SDS011;67146;51.236;-0.336;2023-09-12T07:28:38;12.90;;;5.38;;
77948;SDS011;67146;51.236;-0.336;2023-09-12T07:31:06;13.40;;;5.85;;
77948;SDS011;67146;51.236;-0.336;2023-09-12T07:33:50;12.30;;;4.95;;
77948;SDS011;67146;51.236;-0.336;2023-09-12T08:06:07;11.63;;;4.85;;
77948;SDS011;67146;51.236;-0.336;2023-09-12T08:08:32;11.50;;;6.32;;
77948;SDS011;67146;51.236;-0.336;2023-09-12T08:11:00;15.57;;;5.90;;
77948;SDS011;67146;51.236;-0.336;2023-09-12T08:13:40;11.85;;;5.00;;
77948;SDS011;67146;51.236;-0.336;2023-09-12T08:16:06;12.38;;;6.03;;
77948;SDS011;67146;51.236;-0.336;2023-09-12T08:18:31;15.48;;;5.40;;
77948;SDS011;67146;51.236;-0.336;2023-09-12T08:20:59;13.02;;;5.30;;
77948;SDS011;67146;51.236;-0.336;2023-09-12T08:23:24;9.02;;;4.30;;
77948;SDS011;67146;51.236;-0.336;2023-09-12T08:25:50;9.45;;;4.47;;
77948;SDS011;67146;51.236;-0.336;2023-09-12T08:28:18;10.63;;;4.50;;
77948;SDS011;67146;51.236;-0.336;2023-09-12T08:30:46;13.20;;;4.75;;
77948;SDS011;67146;51.236;-0.336;2023-09-12T08:33:11;10.30;;;4.90;;
77948;SDS011;67146;51.236;-0.336;2023-09-12T08:35:40;8.20;;;4.15;;
77948;SDS011;67146;51.236;-0.336;2023-09-12T08:38:08;8.07;;;3.83;;
77948;SDS011;67146;51.236;-0.336;2023-09-12T08:40:34;7.78;;;4.28;;
77948;SDS011;67146;51.236;-0.336;2023-09-12T08:43:08;8.80;;;4.22;;
77948;SDS011;67146;51.236;-0.336;2023-09-12T08:45:34;8.53;;;3.10;;
77948;SDS011;67146;51.236;-0.336;2023-09-12T08:51:36;8.90;;;3.33;;
77948;SDS011;67146;51.236;-0.336;2023-09-12T08:54:07;6.68;;;3.15;;
77948;SDS011;67146;51.236;-0.336;2023-09-12T08:56:37;6.90;;;2.72;;
77948;SDS011;67146;51.236;-0.336;2023-09-12T08:59:10;9.35;;;3.70;;
77948;SDS011;67146;51.236;-0.336;2023-09-12T09:05:22;7.50;;;2.58;;
77948;SDS011;67146;51.236;-0.336;2023-09-12T09:07:55;6.15;;;2.30;;
77948;SDS011;67146;51.236;-0.336;2023-09-12T09:13:46;4.95;;;2.38;;
77948;SDS011;67146;51.236;-0.336;2023-09-12T09:21:45;5.15;;;1.70;;
77948;SDS011;67146;51.236;-0.336;2023-09-12T09:24:19;6.70;;;2.08;;
77948;SDS011;67146;51.236;-0.336;2023-09-12T09:26:52;5.07;;;1.90;;
77948;SDS011;67146;51.236;-0.336;2023-09-12T09:29:24;5.47;;;1.70;;
77948;SDS011;67146;51.236;-0.336;2023-09-12T09:31:56;5.65;;;1.33;;
77948;SDS011;67146;51.236;-0.336;2023-09-12T09:34:24;5.32;;;1.63;;
77948;SDS011;67146;51.236;-0.336;2023-09-12T09:37:26;6.25;;;2.15;;
77948;SDS011;67146;51.236;-0.336;2023-09-12T09:39:51;5.18;;;1.75;;
77948;SDS011;67146;51.236;-0.336;2023-09-12T09:42:22;4.50;;;1.45;;
77948;SDS011;67146;51.236;-0.336;2023-09-12T09:44:52;5.10;;;1.67;;
77948;SDS011;67146;51.236;-0.336;2023-09-12T10:19:43;4.57;;;1.52;;
77948;SDS011;67146;51.236;-0.336;2023-09-12T10:25:46;6.30;;;2.20;;
77948;SDS011;67146;51.236;-0.336;2023-09-12T10:28:23;3.85;;;1.13;;
77948;SDS011;67146;51.236;-0.336;2023-09-12T10:30:49;5.35;;;1.25;;
77948;SDS011;67146;51.236;-0.336;2023-09-12T10:33:19;5.68;;;1.60;;
77948;SDS011;67146;51.236;-0.336;2023-09-12T10:38:10;4.47;;;0.95;;
77948;SDS011;67146;51.236;-0.336;2023-09-12T10:40:39;4.03;;;1.33;;
77948;SDS011;67146;51.236;-0.336;2023-09-12T10:43:06;5.00;;;1.25;;
77948;SDS011;67146;51.236;-0.336;2023-09-12T10:48:01;3.42;;;1.00;;
77948;SDS011;67146;51.236;-0.336;2023-09-12T10:50:26;6.28;;;1.70;;
77948;SDS011;67146;51.236;-0.336;2023-09-12T10:52:52;5.32;;;1.58;;
77948;SDS011;67146;51.236;-0.336;2023-09-12T10:55:20;3.38;;;1.02;;
77948;SDS011;67146;51.236;-0.336;2023-09-12T10:58:05;5.07;;;1.17;;
77948;SDS011;67146;51.236;-0.336;2023-09-12T11:00:32;5.25;;;1.00;;
77948;SDS011;67146;51.236;-0.336;2023-09-12T11:02:58;5.00;;;1.35;;
77948;SDS011;67146;51.236;-0.336;2023-09-12T11:07:59;4.18;;;0.98;;
77948;SDS011;67146;51.236;-0.336;2023-09-12T11:10:27;4.85;;;1.10;;
77948;SDS011;67146;51.236;-0.336;2023-09-12T11:12:56;4.63;;;1.17;;
77948;SDS011;67146;51.236;-0.336;2023-09-12T11:15:22;4.07;;;0.90;;
77948;SDS011;67146;51.236;-0.336;2023-09-12T11:18:06;4.63;;;1.23;;
77948;SDS011;67146;51.236;-0.336;2023-09-12T11:20:59;5.82;;;1.88;;
77948;SDS011;67146;51.236;-0.336;2023-09-12T11:23:33;4.97;;;1.30;;
77948;SDS011;67146;51.236;-0.336;2023-09-12T11:28:51;4.18;;;1.20;;
77948;SDS011;67146;51.236;-0.336;2023-09-12T11:31:26;4.93;;;1.30;;
77948;SDS011;67146;51.236;-0.336;2023-09-12T11:33:53;6.32;;;2.03;;
77948;SDS011;67146;51.236;-0.336;2023-09-12T11:36:19;5.50;;;1.70;;
77948;SDS011;67146;51.236;-0.336;2023-09-12T11:38:48;5.95;;;1.88;;
77948;SDS011;67146;51.236;-0.336;2023-09-12T11:41:38;7.90;;;2.92;;
77948;SDS011;67146;51.236;-0.336;2023-09-12T11:44:07;5.97;;;1.85;;
77948;SDS011;67146;51.236;-0.336;2023-09-12T11:46:33;5.65;;;2.10;;
77948;SDS011;67146;51.236;-0.336;2023-09-12T11:49:00;5.95;;;1.80;;
77948;SDS011;67146;51.236;-0.336;2023-09-12T11:51:30;5.05;;;1.73;;
77948;SDS011;67146;51.236;-0.336;2023-09-12T11:56:37;5.00;;;2.83;;
77948;SDS011;67146;51.236;-0.336;2023-09-12T11:59:06;5.43;;;1.15;;
77948;SDS011;67146;51.236;-0.336;2023-09-12T12:01:33;6.45;;;1.20;;
77948;SDS011;67146;51.236;-0.336;2023-09-12T12:03:58;4.53;;;1.58;;
77948;SDS011;67146;51.236;-0.336;2023-09-12T12:06:24;4.88;;;1.10;;
77948;SDS011;67146;51.236;-0.336;2023-09-12T12:08:52;4.57;;;1.63;;
77948;SDS011;67146;51.236;-0.336;2023-09-12T12:11:27;5.53;;;1.25;;
77948;SDS011;67146;51.236;-0.336;2023-09-12T12:14:09;4.53;;;2.30;;
77948;SDS011;67146;51.236;-0.336;2023-09-12T12:17:08;5.45;;;1.58;;
77948;SDS011;67146;51.236;-0.336;2023-09-12T12:22:10;5.38;;;1.40;;
77948;SDS011;67146;51.236;-0.336;2023-09-12T12:24:37;6.03;;;1.45;;
77948;SDS011;67146;51.236;-0.336;2023-09-12T12:27:30;5.13;;;1.42;;
77948;SDS011;67146;51.236;-0.336;2023-09-12T12:29:58;7.80;;;1.70;;
77948;SDS011;67146;51.236;-0.336;2023-09-12T12:32:30;6.43;;;1.30;;
77948;SDS011;67146;51.236;-0.336;2023-09-12T12:35:06;6.78;;;1.45;;
77948;SDS011;67146;51.236;-0.336;2023-09-12T12:37:38;5.28;;;1.67;;
77948;SDS011;67146;51.236;-0.336;2023-09-12T12:40:05;6.40;;;1.60;;
77948;SDS011;67146;51.236;-0.336;2023-09-12T12:45:26;7.55;;;1.45;;
77948;SDS011;67146;51.236;-0.336;2023-09-12T12:47:59;5.20;;;2.47;;
77948;SDS011;67146;51.236;-0.336;2023-09-12T12:50:26;4.88;;;1.45;;
77948;SDS011;67146;51.236;-0.336;2023-09-12T12:52:56;5.47;;;1.92;;
77948;SDS011;67146;51.236;-0.336;2023-09-12T12:55:26;5.30;;;1.67;;
77948;SDS011;67146;51.236;-0.336;2023-09-12T12:57:54;4.90;;;1.48;;
77948;SDS011;67146;51.236;-0.336;2023-09-12T13:00:19;5.50;;;1.88;;
77948;SDS011;67146;51.236;-0.336;2023-09-12T13:02:51;5.35;;;1.98;;
77948;SDS011;67146;51.236;-0.336;2023-09-12T13:08:11;5.40;;;1.52;;
77948;SDS011;67146;51.236;-0.336;2023-09-12T13:10:37;5.63;;;1.48;;
77948;SDS011;67146;51.236;-0.336;2023-09-12T13:13:05;3.92;;;0.90;;
77948;SDS011;67146;51.236;-0.336;2023-09-12T13:15:31;5.68;;;1.95;;
77948;SDS011;67146;51.236;-0.336;2023-09-12T13:17:56;5.32;;;1.63;;
77948;SDS011;67146;51.236;-0.336;2023-09-12T13:20:26;4.93;;;1.88;;
77948;SDS011;67146;51.236;-0.336;2023-09-12T13:22:53;8.93;;;2.03;;
77948;SDS011;67146;51.236;-0.336;2023-09-12T13:25:19;4.57;;;1.67;;
77948;SDS011;67146;51.236;-0.336;2023-09-12T14:06:25;7.63;;;2.45;;
77948;SDS011;67146;51.236;-0.336;2023-09-12T14:08:51;7.57;;;3.00;;
77948;SDS011;67146;51.236;-0.336;2023-09-12T14:11:22;5.93;;;2.10;;
77948;SDS011;67146;51.236;-0.336;2023-09-12T14:13:47;4.75;;;2.30;;
77948;SDS011;67146;51.236;-0.336;2023-09-12T14:16:15;5.53;;;2.25;;
77948;SDS011;67146;51.236;-0.336;2023-09-12T14:18:47;4.95;;;2.28;;
77948;SDS011;67146;51.236;-0.336;2023-09-12T14:21:12;7.40;;;2.20;;
77948;SDS011;67146;51.236;-0.336;2023-09-12T14:23:38;7.60;;;2.30;;
77948;SDS011;67146;51.236;-0.336;2023-09-12T14:26:03;5.93;;;2.25;;
77948;SDS011;67146;51.236;-0.336;2023-09-12T14:28:38;6.13;;;2.33;;
77948;SDS011;67146;51.236;-0.336;2023-09-12T14:31:03;6.07;;;2.42;;
77948;SDS011;67146;51.236;-0.336;2023-09-12T14:33:30;9.25;;;3.35;;
77948;SDS011;67146;51.236;-0.336;2023-09-12T14:36:15;6.30;;;2.10;;
77948;SDS011;67146;51.236;-0.336;2023-09-12T14:38:40;7.70;;;2.80;;
77948;SDS011;67146;51.236;-0.336;2023-09-12T14:41:15;6.85;;;2.35;;
77948;SDS011;67146;51.236;-0.336;2023-09-12T14:43:41;6.97;;;3.15;;
77948;SDS011;67146;51.236;-0.336;2023-09-12T14:46:09;6.00;;;2.70;;
77948;SDS011;67146;51.236;-0.336;2023-09-12T14:48:35;9.63;;;2.75;;
77948;SDS011;67146;51.236;-0.336;2023-09-12T14:51:05;6.45;;;2.42;;
77948;SDS011;67146;51.236;-0.336;2023-09-12T14:53:40;6.10;;;2.35;;
77948;SDS011;67146;51.236;-0.336;2023-09-12T14:56:12;5.95;;;1.90;;
77948;SDS011;67146;51.236;-0.336;2023-09-12T14:58:37;6.95;;;2.15;;
77948;SDS011;67146;51.236;-0.336;2023-09-12T15:01:03;5.50;;;2.03;;
77948;SDS011;67146;51.236;-0.336;2023-09-12T15:03:34;8.25;;;2.80;;
77948;SDS011;67146;51.236;-0.336;2023-09-12T15:06:05;6.53;;;1.83;;
77948;SDS011;67146;51.236;-0.336;2023-09-12T15:08:32;6.85;;;2.00;;
77948;SDS011;67146;51.236;-0.336;2023-09-12T15:11:01;5.97;;;2.13;;
77948;SDS011;67146;51.236;-0.336;2023-09-12T15:13:28;5.20;;;1.95;;
77948;SDS011;67146;51.236;-0.336;2023-09-12T15:15:54;5.30;;;1.83;;
77948;SDS011;67146;51.236;-0.336;2023-09-12T15:18:19;5.60;;;1.73;;
77948;SDS011;67146;51.236;-0.336;2023-09-12T15:20:45;6.65;;;1.95;;
77948;SDS011;67146;51.236;-0.336;2023-09-12T15:23:10;6.10;;;1.70;;
77948;SDS011;67146;51.236;-0.336;2023-09-12T15:25:36;5.97;;;1.80;;
77948;SDS011;67146;51.236;-0.336;2023-09-12T15:28:01;5.22;;;2.03;;
77948;SDS011;67146;51.236;-0.336;2023-09-12T15:30:27;5.30;;;1.90;;
77948;SDS011;67146;51.236;-0.336;2023-09-12T15:35:21;5.73;;;1.90;;
77948;SDS011;67146;51.236;-0.336;2023-09-12T15:37:51;6.50;;;1.75;;
77948;SDS011;67146;51.236;-0.336;2023-09-12T15:40:16;6.00;;;1.90;;
77948;SDS011;67146;51.236;-0.336;2023-09-12T15:42:42;5.00;;;1.40;;
77948;SDS011;67146;51.236;-0.336;2023-09-12T15:45:07;5.18;;;1.58;;
77948;SDS011;67146;51.236;-0.336;2023-09-12T15:47:35;6.38;;;1.85;;
77948;SDS011;67146;51.236;-0.336;2023-09-12T15:50:01;4.50;;;1.20;;
77948;SDS011;67146;51.236;-0.336;2023-09-12T15:52:27;5.78;;;2.10;;
77948;SDS011;67146;51.236;-0.336;2023-09-12T15:55:03;4.80;;;1.20;;
77948;SDS011;67146;51.236;-0.336;2023-09-12T15:57:32;4.75;;;1.25;;
77948;SDS011;67146;51.236;-0.336;2023-09-12T16:00:02;5.80;;;1.88;;
77948;SDS011;67146;51.236;-0.336;2023-09-12T16:02:37;6.85;;;1.48;;
77948;SDS011;67146;51.236;-0.336;2023-09-12T16:05:03;4.60;;;1.42;;
77948;SDS011;67146;51.236;-0.336;2023-09-12T16:07:29;5.20;;;2.10;;
77948;SDS011;67146;51.236;-0.336;2023-09-12T16:09:55;4.30;;;1.33;;
77948;SDS011;67146;51.236;-0.336;2023-09-12T16:12:30;6.22;;;1.90;;
77948;SDS011;67146;51.236;-0.336;2023-09-12T16:14:56;4.07;;;1.20;;
77948;SDS011;67146;51.236;-0.336;2023-09-12T16:17:27;6.00;;;1.63;;
77948;SDS011;67146;51.236;-0.336;2023-09-12T16:20:02;7.10;;;1.65;;
77948;SDS011;67146;51.236;-0.336;2023-09-12T16:22:30;7.15;;;1.63;;
77948;SDS011;67146;51.236;-0.336;2023-09-12T16:24:59;4.65;;;1.10;;
77948;SDS011;67146;51.236;-0.336;2023-09-12T16:27:24;7.30;;;1.23;;
77948;SDS011;67146;51.236;-0.336;2023-09-12T16:29:50;4.75;;;1.20;;
77948;SDS011;67146;51.236;-0.336;2023-09-12T16:32:15;4.82;;;1.20;;
77948;SDS011;67146;51.236;-0.336;2023-09-12T16:34:44;6.75;;;1.55;;
77948;SDS011;67146;51.236;-0.336;2023-09-12T16:37:38;4.13;;;1.10;;
77948;SDS011;67146;51.236;-0.336;2023-09-12T16:40:07;5.05;;;1.75;;
77948;SDS011;67146;51.236;-0.336;2023-09-12T16:42:40;7.30;;;2.42;;
77948;SDS011;67146;51.236;-0.336;2023-09-12T16:45:07;4.22;;;0.70;;
77948;SDS011;67146;51.236;-0.336;2023-09-12T16:47:44;5.32;;;1.55;;
77948;SDS011;67146;51.236;-0.336;2023-09-12T16:50:12;4.82;;;1.42;;
77948;SDS011;67146;51.236;-0.336;2023-09-12T16:52:48;4.65;;;1.17;;
77948;SDS011;67146;51.236;-0.336;2023-09-12T16:55:13;6.65;;;0.93;;
77948;SDS011;67146;51.236;-0.336;2023-09-12T16:57:40;5.43;;;1.27;;
77948;SDS011;67146;51.236;-0.336;2023-09-12T17:00:06;4.75;;;1.23;;
77948;SDS011;67146;51.236;-0.336;2023-09-12T17:02:47;6.13;;;1.67;;
77948;SDS011;67146;51.236;-0.336;2023-09-12T17:05:17;7.05;;;1.45;;
77948;SDS011;67146;51.236;-0.336;2023-09-12T17:07:43;5.45;;;1.75;;
77948;SDS011;67146;51.236;-0.336;2023-09-12T17:10:08;5.25;;;1.25;;
77948;SDS011;67146;51.236;-0.336;2023-09-12T17:12:34;5.75;;;1.45;;
77948;SDS011;67146;51.236;-0.336;2023-09-12T17:15:03;6.03;;;1.88;;
77948;SDS011;67146;51.236;-0.336;2023-09-12T17:17:37;5.32;;;1.48;;
77948;SDS011;67146;51.236;-0.336;2023-09-12T17:20:09;5.10;;;1.50;;